Time;durP1;ratioP1;P1;durP2;ratioP2;P2;SDS_P1;SDS_P2;PMS_P1;PMS_P2;Temp;Humidity;BMP_temperature;BMP_pressure;BME280_temperature;BME280_humidity;BME280_pressure;Samples;Min_cycle;Max_cycle;Signal;HPM_P1;HPM_P2
2022/09/21 00:53:31;;;;;;;26.02;16.95;;;;;;;28.96;73.00;98101.13;4749452;27;9103355;-69
2022/09/21 00:56:19;;;;;;;26.10;18.52;;;;;;;28.91;73.38;98096.69;4974114;28;20191;-70
2022/09/21 00:59:01;;;;;;;25.73;15.77;;;;;;;29.03;73.02;98107.66;5022456;28;20042;-71
2022/09/21 01:01:50;;;;;;;27.52;17.38;;;;;;;29.13;71.85;98102.81;5008414;28;20033;-73
2022/09/21 01:04:40;;;;;;;26.17;17.00;;;;;;;29.19;73.29;98107.72;5034656;28;20175;-72
2022/09/21 01:07:27;;;;;;;25.50;16.48;;;;;;;29.24;72.69;98103.94;5012924;28;20060;-71
2022/09/21 05:11:25;;;;;;;74.47;46.22;;;;;;;34.90;56.72;98253.03;4693952;28;9136486;-70
2022/09/21 05:14:22;;;;;;;73.82;46.97;;;;;;;34.57;55.83;98248.38;5005419;28;20112;-71
2022/09/21 05:17:21;;;;;;;72.85;43.33;;;;;;;34.61;56.71;98247.22;5002894;28;20046;-71
2022/09/21 05:19:57;;;;;;;62.17;40.60;;;;;;;34.22;55.22;98250.47;5001472;28;20473;-64
2022/09/21 05:22:47;;;;;;;63.58;39.72;;;;;;;34.26;57.04;98247.72;5002172;28;20096;-64
2022/09/21 05:25:29;;;;;;;66.95;41.35;;;;;;;34.12;59.03;98240.78;5002394;28;20065;-64
2022/09/21 05:28:18;;;;;;;67.60;40.38;;;;;;;33.90;56.82;98244.56;5001237;28;20108;-71
2022/09/21 05:31:26;;;;;;;62.35;37.97;;;;;;;33.63;56.69;98241.88;5000876;28;20046;-72
2022/09/21 05:34:49;;;;;;;59.28;35.47;;;;;;;34.27;54.88;98236.19;5006303;28;20076;-70
2022/09/21 05:37:52;;;;;;;48.55;32.45;;;;;;;34.81;55.48;98228.28;5001354;28;20042;-69
2022/09/21 05:40:41;;;;;;;46.85;31.35;;;;;;;35.19;53.31;98223.34;5001355;28;20326;-68
2022/09/21 05:43:24;;;;;;;47.20;31.90;;;;;;;35.43;52.36;98227.44;5000802;28;20056;-68
2022/09/21 05:46:18;;;;;;;51.35;31.85;;;;;;;34.29;52.27;98228.25;5002085;28;20049;-68
2022/09/21 05:49:08;;;;;;;54.15;29.70;;;;;;;34.96;55.36;98225.59;5000895;28;20054;-69
2022/09/21 05:52:15;;;;;;;46.70;30.85;;;;;;;35.16;50.65;98218.53;5001839;28;20043;-70
2022/09/21 05:55:28;;;;;;;48.60;32.35;;;;;;;35.60;50.95;98223.13;5001468;28;20049;-68
2022/09/21 05:58:40;;;;;;;47.20;32.92;;;;;;;35.18;51.21;98223.72;5004080;28;20050;-69
2022/09/21 06:01:35;;;;;;;46.97;32.97;;;;;;;36.00;48.74;98214.84;5003625;28;20533;-71
2022/09/21 06:04:12;;;;;;;49.38;31.05;;;;;;;35.92;49.46;98214.03;5003576;28;20046;-70
2022/09/21 06:07:01;;;;;;;41.10;30.35;;;;;;;35.08;51.82;98222.47;5000146;28;20049;-69
2022/09/21 06:09:43;;;;;;;43.63;31.13;;;;;;;35.11;52.21;98221.69;5000761;28;20065;-70
2022/09/21 06:12:32;;;;;;;46.03;30.33;;;;;;;35.45;53.21;98210.31;4982701;28;20043;-69
2022/09/21 06:15:23;;;;;;;48.10;30.90;;;;;;;35.58;51.86;98205.97;4992915;28;20065;-71
2022/09/21 06:18:12;;;;;;;36.53;25.02;;;;;;;35.94;50.25;98200.47;5001517;28;20041;-71
2022/09/21 06:21:02;;;;;;;34.90;20.10;;;;;;;35.55;49.99;98201.16;4997077;28;20060;-72
2022/09/21 06:23:44;;;;;;;37.25;19.80;;;;;;;35.91;48.58;98198.50;4978700;28;20550;-71
2022/09/21 06:26:34;;;;;;;26.08;17.33;;;;;;;35.28;50.81;98197.88;4968078;28;20049;-71
2022/09/21 06:29:22;;;;;;;23.25;15.43;;;;;;;36.22;49.35;98194.16;4967367;28;20043;-71
2022/09/21 06:32:11;;;;;;;25.50;14.52;;;;;;;35.97;50.32;98190.53;4985143;28;20046;-70
2022/09/21 06:34:53;;;;;;;23.15;14.05;;;;;;;35.84;48.71;98195.69;4987418;28;20132;-69
2022/09/21 06:37:42;;;;;;;22.58;12.50;;;;;;;35.60;48.84;98194.41;4973959;28;20074;-69
2022/09/21 06:40:29;;;;;;;18.17;12.05;;;;;;;34.69;49.41;98200.72;4988049;28;20050;-70
2022/09/21 06:43:18;;;;;;;21.45;13.38;;;;;;;35.44;49.23;98195.53;4970700;28;20378;-71
2022/09/21 06:46:01;;;;;;;20.95;13.68;;;;;;;34.94;50.75;98194.50;4968613;28;20046;-69
2022/09/21 06:48:51;;;;;;;29.73;14.35;;;;;;;34.66;51.58;98195.88;4977843;28;20433;-70
2022/09/21 06:51:40;;;;;;;24.15;14.65;;;;;;;34.63;53.16;98196.69;4985340;28;20109;-70
2022/09/21 06:54:29;;;;;;;20.27;14.00;;;;;;;34.57;53.53;98192.63;4988079;28;20046;-70
2022/09/21 06:57:24;;;;;;;23.35;13.75;;;;;;;34.32;56.00;98182.13;4985894;28;20046;-70
2022/09/21 07:00:01;;;;;;;19.23;12.85;;;;;;;33.93;58.28;98193.66;5001116;28;20433;-70
2022/09/21 07:02:50;;;;;;;31.92;13.02;;;;;;;33.66;59.79;98181.88;4989367;28;20046;-69
2022/09/21 07:05:33;;;;;;;24.27;12.25;;;;;;;33.62;59.54;98201.28;4988714;28;20132;-70
2022/09/21 07:08:31;;;;;;;34.33;13.07;;;;;;;32.79;61.10;98202.19;4986405;28;20050;-71
2022/09/21 07:11:40;;;;;;;37.53;11.77;;;;;;;32.25;63.38;98197.72;4980258;28;20054;-69
2022/09/21 07:14:35;;;;;;;22.65;11.57;;;;;;;31.85;63.88;98210.09;4986144;28;20128;-67
2022/09/21 07:17:12;;;;;;;29.90;12.98;;;;;;;31.58;65.13;98204.44;4985179;28;20072;-69
2022/09/21 07:20:01;;;;;;;35.17;13.32;;;;;;;31.24;66.52;98195.78;4986011;28;20050;-67
2022/09/21 07:22:44;;;;;;;20.25;10.95;;;;;;;31.11;66.38;98203.47;4985778;28;20358;-69
2022/09/21 07:25:33;;;;;;;29.52;16.08;;;;;;;31.26;64.69;98190.72;4985901;28;20112;-67
2022/09/21 07:28:23;;;;;;;39.83;17.95;;;;;;;30.91;65.63;98176.88;4986046;28;20057;-68
2022/09/21 07:31:13;;;;;;;29.77;14.83;;;;;;;30.72;65.76;98180.38;4986836;28;20050;-68
2022/09/21 07:34:04;;;;;;;27.00;15.68;;;;;;;30.83;68.08;98173.91;4986104;28;20284;-68
2022/09/21 07:36:46;;;;;;;47.22;16.20;;;;;;;30.48;75.49;98171.16;4986792;28;20137;-68
2022/09/21 07:39:37;;;;;;;22.55;11.13;;;;;;;29.19;78.54;98162.22;4984718;28;20049;-69
2022/09/21 07:42:33;;;;;;;17.35;12.02;;;;;;;28.97;76.61;98136.69;4985732;28;20116;-69
2022/09/21 07:45:09;;;;;;;13.63;10.63;;;;;;;29.15;76.54;98126.19;4985560;28;20046;-69
2022/09/21 07:48:04;;;;;;;16.80;12.32;;;;;;;29.40;78.17;98135.16;4985853;28;20772;-68
2022/09/21 07:50:56;;;;;;;18.13;12.68;;;;;;;29.28;79.28;98143.53;4984818;28;20054;-68
2022/09/21 07:53:46;;;;;;;18.48;12.95;;;;;;;29.25;81.90;98160.78;4985330;28;20046;-68
2022/09/21 07:56:28;;;;;;;19.98;14.00;;;;;;;29.41;82.35;98158.09;4985652;28;20061;-68
2022/09/21 07:59:18;;;;;;;23.92;14.98;;;;;;;29.26;80.96;98151.38;4985379;28;20054;-68
2022/09/21 08:02:01;;;;;;;22.42;15.93;;;;;;;28.96;81.89;98153.63;4985521;28;20584;-68
2022/09/21 08:04:50;;;;;;;24.33;16.98;;;;;;;29.56;82.39;98140.75;4985116;28;20112;-68
2022/09/21 08:07:39;;;;;;;24.10;17.05;;;;;;;29.82;82.21;98125.63;4983858;28;20050;-68
2022/09/21 08:10:21;;;;;;;27.88;18.80;;;;;;;29.77;81.79;98125.88;4983621;28;20043;-69
2022/09/21 08:13:16;;;;;;;28.92;19.77;;;;;;;29.37;80.78;98118.47;4975167;28;20090;-68
2022/09/21 08:16:05;;;;;;;33.03;22.25;;;;;;;29.63;81.22;98121.53;4982933;28;20057;-68
2022/09/21 08:18:54;;;;;;;40.78;24.40;;;;;;;29.76;82.60;98114.00;4981417;28;20436;-68
2022/09/21 08:21:36;;;;;;;37.50;24.45;;;;;;;29.91;80.27;98103.31;4986557;28;20042;-68
2022/09/21 08:24:26;;;;;;;37.13;25.40;;;;;;;29.57;77.75;98091.75;4986336;28;20058;-67
2022/09/21 08:27:07;;;;;;;35.97;25.05;;;;;;;29.64;79.87;98090.00;4970233;28;20137;-67
2022/09/21 08:29:57;;;;;;;33.58;25.92;;;;;;;29.77;80.98;98082.44;4984978;28;20079;-68
2022/09/21 08:32:39;;;;;;;38.50;27.35;;;;;;;29.50;79.88;98088.81;4987035;28;20112;-67
2022/09/21 08:35:32;;;;;;;38.72;28.15;;;;;;;30.04;80.85;98082.69;4985433;28;20066;-70
2022/09/21 08:38:22;;;;;;;42.58;30.95;;;;;;;29.93;79.60;98082.44;4985158;28;20145;-66
2022/09/21 08:41:06;;;;;;;39.72;30.33;;;;;;;30.39;80.98;98068.91;4985611;28;20066;-66
2022/09/21 08:44:08;;;;;;;41.67;30.42;;;;;;;30.24;78.82;98066.94;4985472;28;20057;-67
2022/09/21 08:46:54;;;;;;;43.63;30.83;;;;;;;30.31;79.73;98056.03;4985868;28;20042;-67
2022/09/21 08:49:56;;;;;;;42.60;30.50;;;;;;;30.41;79.88;98054.69;4986573;28;20054;-67
2022/09/21 08:52:32;;;;;;;49.13;32.75;;;;;;;30.53;79.55;98062.88;4986367;28;20057;-67
2022/09/21 08:55:32;;;;;;;46.10;31.40;;;;;;;30.59;79.49;98055.06;4986050;28;20539;-67
2022/09/21 08:58:36;;;;;;;47.03;32.03;;;;;;;30.76;80.30;98056.63;4985146;28;20133;-67
2022/09/21 09:01:33;;;;;;;48.35;33.25;;;;;;;30.81;80.85;98050.78;4985590;28;20424;-67
2022/09/21 09:04:38;;;;;;;55.20;35.30;;;;;;;30.79;80.68;98033.75;4985194;28;20477;-68
2022/09/21 09:08:02;;;;;;;52.13;35.63;;;;;;;30.77;79.19;98020.25;4986210;28;20550;-67
2022/09/21 09:11:10;;;;;;;55.75;35.65;;;;;;;30.97;81.22;98004.41;4986298;28;20061;-68
2022/09/21 09:14:11;;;;;;;59.38;38.05;;;;;;;30.99;81.67;98009.59;4983492;28;20632;-67
2022/09/21 09:17:36;;;;;;;55.22;36.72;;;;;;;31.01;80.77;98005.31;4977631;28;20093;-67
2022/09/21 09:20:45;;;;;;;54.58;36.55;;;;;;;31.15;79.10;97992.88;4965662;28;20046;-67
2022/09/21 09:23:47;;;;;;;49.38;36.75;;;;;;;31.49;79.80;97991.13;4966636;28;20054;-67
2022/09/21 09:26:34;;;;;;;54.88;34.00;;;;;;;31.00;76.72;97987.06;4947549;28;20043;-68
2022/09/21 09:29:53;;;;;;;50.00;34.13;;;;;;;31.31;76.13;97988.00;4965304;28;20130;-67
2022/09/21 09:32:51;;;;;;;45.65;32.30;;;;;;;31.35;75.22;97991.63;4968749;28;20050;-67
2022/09/21 09:35:54;;;;;;;44.05;29.67;;;;;;;31.54;76.99;98003.88;4968709;28;20137;-68
2022/09/21 09:38:50;;;;;;;42.10;32.15;;;;;;;31.47;77.24;98004.56;4983489;28;20046;-67
2022/09/21 09:41:50;;;;;;;50.33;33.93;;;;;;;31.72;78.53;98004.97;4985498;28;20109;-67
2022/09/21 09:44:52;;;;;;;35.22;25.92;;;;;;;31.70;75.76;97992.63;4985749;28;20069;-67
2022/09/21 09:48:08;;;;;;;33.08;25.08;;;;;;;31.86;76.14;97987.75;4984857;28;20058;-68
2022/09/21 09:50:57;;;;;;;38.72;27.45;;;;;;;31.98;78.07;97995.03;4984957;28;20140;-67
2022/09/21 09:53:46;;;;;;;37.08;24.27;;;;;;;31.92;78.04;97979.91;4980481;28;20065;-67
2022/09/21 09:56:38;;;;;;;32.67;21.15;;;;;;;31.75;77.00;97973.69;4984748;28;20065;-67
2022/09/21 09:59:29;;;;;;;30.90;21.42;;;;;;;31.78;79.27;97981.28;4986259;28;20081;-66
2022/09/21 10:02:32;;;;;;;31.05;18.23;;;;;;;31.62;76.02;97977.84;4987438;28;20057;-67
2022/09/21 10:05:24;;;;;;;23.03;13.10;;;;;;;31.69;73.77;97982.72;4989278;28;20421;-67
2022/09/21 10:08:07;;;;;;;14.57;11.05;;;;;;;31.78;72.02;97978.50;4989453;28;20050;-67
2022/09/21 10:10:57;;;;;;;16.10;10.65;;;;;;;31.92;72.96;97977.13;4989039;28;20043;-67
2022/09/21 10:13:55;;;;;;;18.73;9.63;;;;;;;32.03;71.21;97974.53;4987215;28;20124;-67
2022/09/21 10:16:51;;;;;;;13.90;8.32;;;;;;;32.28;69.57;97977.66;4988906;28;20053;-67
2022/09/21 10:19:47;;;;;;;12.27;7.70;;;;;;;32.43;69.44;97971.09;4989068;28;20810;-68
2022/09/21 10:22:22;;;;;;;13.30;7.75;;;;;;;32.27;68.67;97962.16;4988972;28;20129;-65
2022/09/21 10:25:26;;;;;;;12.68;7.22;;;;;;;32.26;68.27;97950.25;4988801;28;20054;-68
2022/09/21 10:28:04;;;;;;;14.02;7.50;;;;;;;32.37;67.88;97961.50;4988971;28;20433;-67
2022/09/21 10:31:08;;;;;;;9.68;6.60;;;;;;;32.24;65.51;97957.38;4985888;28;20582;-66
2022/09/21 10:34:11;;;;;;;7.45;6.57;;;;;;;32.27;65.73;97951.03;4988718;28;20066;-66
2022/09/21 10:37:02;;;;;;;9.27;6.00;;;;;;;32.31;66.15;97941.59;4982898;28;20137;-66
2022/09/21 10:39:54;;;;;;;10.93;6.18;;;;;;;32.41;66.32;97936.53;4978424;28;20046;-66
2022/09/21 10:42:43;;;;;;;9.35;6.40;;;;;;;32.40;66.21;97932.97;4989936;28;20066;-67
2022/09/21 10:45:27;;;;;;;9.95;6.88;;;;;;;32.14;64.14;97942.97;4989843;28;20089;-66
2022/09/21 10:48:20;;;;;;;12.05;6.53;;;;;;;32.28;64.30;97938.78;4988872;28;20125;-66
2022/09/21 10:51:03;;;;;;;10.45;7.32;;;;;;;32.17;64.74;97936.66;4987936;28;20047;-67
2022/09/21 10:53:52;;;;;;;11.48;7.07;;;;;;;32.24;68.77;97940.72;4988704;28;20086;-66
2022/09/21 10:56:41;;;;;;;11.55;7.07;;;;;;;32.31;68.48;97935.22;4988430;28;20042;-67
2022/09/21 10:59:32;;;;;;;12.77;7.28;;;;;;;32.32;67.64;97931.28;4988706;28;20069;-67
2022/09/21 11:02:41;;;;;;;12.82;7.40;;;;;;;32.34;67.95;97926.94;4988152;28;20113;-68
2022/09/21 11:05:40;;;;;;;10.90;7.80;;;;;;;32.32;65.85;97939.63;4988492;28;20116;-66
2022/09/21 11:08:36;;;;;;;13.93;7.57;;;;;;;32.39;63.50;97931.38;4988016;28;20065;-67
2022/09/21 11:11:48;;;;;;;9.15;6.63;;;;;;;32.56;64.00;97939.16;4970173;28;20047;-67
2022/09/21 11:14:54;;;;;;;10.90;7.60;;;;;;;32.42;60.75;97933.38;4967262;28;20069;-67
2022/09/21 11:18:20;;;;;;;9.13;6.65;;;;;;;32.34;61.21;97940.81;4968653;28;20133;-68
2022/09/21 11:21:40;;;;;;;9.00;6.40;;;;;;;32.34;61.71;97945.59;4967081;28;20089;-67
2022/09/21 11:24:47;;;;;;;11.77;6.55;;;;;;;32.46;65.68;97939.78;4962866;28;20070;-66
2022/09/21 11:27:48;;;;;;;14.30;7.38;;;;;;;32.35;62.84;97936.88;4987613;28;20053;-67
2022/09/21 11:30:57;;;;;;;8.63;7.00;;;;;;;32.29;66.76;97941.19;4987797;28;20094;-66
2022/09/21 11:33:58;;;;;;;9.52;7.35;;;;;;;32.23;64.52;97942.66;4987640;28;20157;-66
2022/09/21 11:36:56;;;;;;;10.45;7.13;;;;;;;32.25;66.35;97934.75;4987701;28;20065;-66
2022/09/21 11:39:51;;;;;;;10.48;7.63;;;;;;;32.11;66.12;97938.16;4968094;28;20054;-67
2022/09/21 11:42:52;;;;;;;9.18;7.20;;;;;;;32.18;63.75;97937.47;4967832;28;20047;-67
2022/09/21 11:45:56;;;;;;;11.75;7.90;;;;;;;32.16;65.84;97935.06;4967896;28;20132;-67
2022/09/21 11:49:10;;;;;;;10.25;6.95;;;;;;;32.11;65.97;97931.81;4968053;28;20085;-67
2022/09/21 11:52:14;;;;;;;7.55;6.70;;;;;;;31.98;66.07;97925.66;5008607;28;20057;-66
2022/09/21 11:55:32;;;;;;;10.38;6.55;;;;;;;31.85;68.06;97919.53;5023404;28;20046;-67
2022/09/21 11:58:45;;;;;;;11.05;6.30;;;;;;;31.98;62.20;97922.88;4992190;28;20050;-69
2022/09/21 12:01:35;;;;;;;13.07;7.93;;;;;;;31.92;66.45;97918.84;5000283;28;20042;-67
2022/09/21 12:04:27;;;;;;;8.60;6.43;;;;;;;31.64;63.31;97908.94;4994961;28;20113;-67
2022/09/21 12:07:34;;;;;;;10.43;5.53;;;;;;;31.87;63.01;97917.19;5002315;28;20054;-67
2022/09/21 12:11:13;;;;;;;8.98;6.07;;;;;;;31.88;63.44;97918.00;5002586;28;20050;-68
2022/09/21 12:14:14;;;;;;;7.97;6.38;;;;;;;31.72;65.02;97918.16;5019767;28;20045;-67
2022/09/21 12:17:32;;;;;;;13.75;6.22;;;;;;;31.49;67.15;97918.22;5002752;28;20548;-66
2022/09/21 12:20:50;;;;;;;16.48;6.93;;;;;;;31.38;69.05;97910.50;5018056;28;20053;-66
2022/09/21 12:24:00;;;;;;;9.75;6.47;;;;;;;31.26;69.82;97915.44;4986512;28;20050;-68
2022/09/21 12:26:54;;;;;;;11.90;6.50;;;;;;;31.29;69.85;97915.50;4986641;28;20428;-69
2022/09/21 12:29:52;;;;;;;13.00;7.03;;;;;;;31.22;70.05;97916.19;4986308;28;20104;-69
2022/09/21 12:32:49;;;;;;;12.98;6.57;;;;;;;31.09;70.84;97911.19;5012884;28;20045;-68
2022/09/21 12:35:43;;;;;;;17.00;7.22;;;;;;;31.05;70.98;97913.13;4999919;28;20046;-68
2022/09/21 12:39:12;;;;;;;13.73;6.47;;;;;;;31.01;71.40;97916.63;5005942;28;20050;-68
2022/09/21 12:42:08;;;;;;;15.95;6.72;;;;;;;30.78;71.96;97913.00;4981322;28;20054;-68
2022/09/21 12:45:16;;;;;;;25.88;7.57;;;;;;;30.72;71.34;97917.25;4985995;28;20050;-67
2022/09/21 12:48:02;;;;;;;15.63;6.72;;;;;;;30.66;72.08;97921.50;5005831;28;20120;-67
2022/09/21 12:51:33;;;;;;;19.58;7.45;;;;;;;30.60;72.81;97924.56;5005955;28;20315;-68
2022/09/21 12:54:41;;;;;;;16.20;7.53;;;;;;;30.67;73.00;97928.63;4967820;28;20193;-68
2022/09/21 12:57:54;;;;;;;18.00;8.70;;;;;;;30.55;73.52;97922.06;4982016;28;20137;-66
2022/09/21 13:01:05;;;;;;;17.98;7.20;;;;;;;30.51;73.08;97932.28;5005322;28;20050;-67
2022/09/21 13:04:05;;;;;;;19.60;8.30;;;;;;;30.50;73.43;97935.44;5005289;28;20103;-67
2022/09/21 13:07:31;;;;;;;15.90;8.35;;;;;;;30.47;73.47;97942.50;4628947;28;10001136;-68
2022/09/21 13:10:54;;;;;;;23.40;9.25;;;;;;;30.46;73.14;97940.91;4997087;28;20053;-69
2022/09/21 13:13:51;;;;;;;22.80;7.78;;;;;;;30.43;73.34;97942.41;5002411;28;20111;-69
2022/09/21 13:16:42;;;;;;;16.98;8.40;;;;;;;30.48;72.95;97949.66;5001670;28;20037;-69
2022/09/21 13:19:41;;;;;;;26.33;8.77;;;;;;;30.37;74.42;97954.97;4996493;28;20056;-67
2022/09/21 13:22:42;;;;;;;26.27;8.88;;;;;;;30.24;74.61;97948.72;4650596;28;10000030;-65
2022/09/21 13:25:20;;;;;;;26.48;8.73;;;;;;;30.23;75.60;97966.50;4985191;28;20132;-66
2022/09/21 13:28:15;;;;;;;34.10;10.55;;;;;;;30.28;76.05;97975.69;5001336;28;20160;-65
2022/09/21 13:31:23;;;;;;;23.90;9.13;;;;;;;30.19;76.04;97976.72;5002692;28;20061;-66
2022/09/21 13:34:24;;;;;;;25.08;9.80;;;;;;;30.20;75.06;97978.28;5002263;28;20804;-64
2022/09/21 13:37:16;;;;;;;20.13;9.63;;;;;;;30.21;75.59;97979.91;5004147;28;20081;-67
2022/09/21 13:40:12;;;;;;;20.20;9.38;;;;;;;30.23;75.58;97977.59;5000085;28;20053;-67
2022/09/21 13:42:49;;;;;;;15.15;9.10;;;;;;;30.26;76.32;97984.34;4970283;28;20046;-66
2022/09/21 13:45:38;;;;;;;19.00;9.10;;;;;;;30.26;75.74;97998.19;4989043;28;20108;-66
2022/09/21 13:48:30;;;;;;;20.17;9.57;;;;;;;30.22;75.72;97989.81;4987883;28;20140;-66
2022/09/21 13:51:25;;;;;;;21.85;9.68;;;;;;;30.24;76.68;98000.50;5005115;28;20042;-65
2022/09/21 13:54:03;;;;;;;18.45;10.35;;;;;;;30.21;75.79;98007.59;5004669;28;20433;-66
2022/09/21 13:57:10;;;;;;;27.00;11.27;;;;;;;30.23;76.51;98005.25;4985030;28;20049;-66
2022/09/21 13:59:48;;;;;;;19.88;11.65;;;;;;;30.13;76.85;98016.09;5001757;28;20049;-66
2022/09/21 14:02:50;;;;;;;21.20;10.80;;;;;;;30.17;77.20;98023.31;5005362;28;20042;-68
2022/09/21 14:05:44;;;;;;;19.42;12.27;;;;;;;30.14;76.59;98024.03;5005171;28;20862;-67
2022/09/21 14:08:32;;;;;;;23.73;13.48;;;;;;;30.17;77.09;98037.16;5003245;28;20168;-66
2022/09/21 14:11:48;;;;;;;27.35;13.82;;;;;;;30.15;76.30;98038.66;4989960;28;20375;-65
2022/09/21 14:14:37;;;;;;;28.63;17.30;;;;;;;30.17;77.33;98048.22;5004916;28;20139;-67
2022/09/21 14:17:46;;;;;;;30.27;20.40;;;;;;;30.15;76.66;98042.25;5006922;28;20126;-68
2022/09/21 14:20:37;;;;;;;36.75;21.67;;;;;;;30.10;75.28;98050.03;4980656;28;20050;-66
2022/09/21 14:23:30;;;;;;;38.90;22.55;;;;;;;30.06;75.56;98049.94;4985899;28;20057;-69
2022/09/21 14:26:32;;;;;;;41.40;22.45;;;;;;;30.08;75.90;98050.38;4983762;28;20065;-68
2022/09/21 14:29:38;;;;;;;42.58;22.77;;;;;;;30.02;75.35;98049.84;4985942;28;20353;-69
2022/09/21 14:32:25;;;;;;;37.72;22.70;;;;;;;30.01;75.66;98052.97;4978867;28;20051;-65
2022/09/21 14:35:44;;;;;;;34.97;23.13;;;;;;;30.10;75.29;98072.16;4987100;28;20054;-66
2022/09/21 14:38:34;;;;;;;39.92;24.52;;;;;;;30.04;75.36;98077.16;4970555;28;20797;-67
2022/09/21 14:41:31;;;;;;;36.78;23.92;;;;;;;30.02;77.00;98074.75;4980457;28;20065;-67
2022/09/21 14:44:31;;;;;;;39.35;24.33;;;;;;;30.05;75.79;98082.31;4975021;28;20069;-67
2022/09/21 14:47:38;;;;;;;43.33;25.33;;;;;;;30.04;75.62;98088.22;4978344;28;20054;-67
2022/09/21 14:50:59;;;;;;;38.42;23.63;;;;;;;30.02;75.48;98101.63;4973936;28;21008;-67
2022/09/21 14:54:13;;;;;;;38.63;23.70;;;;;;;29.97;76.73;98099.91;4980726;28;20046;-68
2022/09/21 14:57:42;;;;;;;39.38;23.88;;;;;;;29.99;76.75;98099.56;4987482;28;20070;-68
2022/09/21 15:00:22;;;;;;;36.22;23.67;;;;;;;29.96;76.11;98111.34;4965942;28;20062;-66
2022/09/21 15:03:31;;;;;;;36.42;23.35;;;;;;;29.89;76.33;98116.72;4978329;28;20105;-66
2022/09/21 15:13:44;;;;;;;30.58;20.33;;;;;;;29.77;76.06;98118.41;4973564;28;20060;-64
2022/09/21 15:16:44;;;;;;;35.55;22.08;;;;;;;29.72;76.17;98113.09;4986081;28;20073;-67
2022/09/21 15:19:42;;;;;;;32.10;21.27;;;;;;;29.67;75.96;98116.13;4990143;28;20045;-66
2022/09/21 15:22:39;;;;;;;30.63;20.63;;;;;;;29.69;76.58;98124.84;4967442;28;20615;-66
2022/09/21 15:25:31;;;;;;;31.52;20.00;;;;;;;29.61;77.29;98117.53;4985613;28;20635;-69
2022/09/21 15:28:21;;;;;;;32.75;20.95;;;;;;;29.62;77.18;98119.16;4986023;28;20046;-66
2022/09/21 15:31:06;;;;;;;35.30;21.55;;;;;;;29.67;77.61;98127.19;4982883;28;20445;-67
2022/09/21 15:33:57;;;;;;;30.13;20.60;;;;;;;29.60;76.55;98129.78;4987518;28;20385;-70
2022/09/21 15:36:49;;;;;;;35.83;21.58;;;;;;;29.57;77.33;98127.72;4983496;28;20043;-70
2022/09/21 15:39:40;;;;;;;33.45;20.10;;;;;;;29.51;76.92;98134.66;4982758;28;20050;-70
2022/09/21 15:42:22;;;;;;;33.78;21.65;;;;;;;29.51;77.45;98129.94;4974573;28;20130;-69
2022/09/21 15:45:24;;;;;;;30.95;20.30;;;;;;;29.53;77.31;98130.38;4971527;28;20142;-71
2022/09/21 15:48:11;;;;;;;33.72;20.70;;;;;;;29.48;77.41;98131.44;4998426;28;20469;-68
2022/09/21 15:51:06;;;;;;;33.22;22.20;;;;;;;29.54;77.10;98128.41;4974170;28;20053;-66
2022/09/21 15:54:06;;;;;;;31.60;20.75;;;;;;;29.54;76.89;98133.94;4975333;28;20166;-66
2022/09/21 15:56:55;;;;;;;31.77;21.08;;;;;;;29.46;77.27;98139.28;4974114;28;20142;-70
2022/09/21 15:59:46;;;;;;;36.00;21.73;;;;;;;29.56;77.26;98132.44;4973988;28;20051;-71
2022/09/21 16:02:45;;;;;;;38.05;23.10;;;;;;;29.46;77.70;98139.28;4985185;28;20042;-69
2022/09/21 16:05:49;;;;;;;36.75;22.55;;;;;;;29.58;78.80;98140.34;4986601;28;20382;-69
2022/09/21 16:08:43;;;;;;;41.28;23.98;;;;;;;29.54;78.56;98145.81;4959565;28;20046;-72
2022/09/21 16:11:36;;;;;;;40.28;22.55;;;;;;;29.46;78.50;98149.53;4628240;28;10000062;-66
2022/09/21 16:17:28;;;;;;;33.80;22.83;;;;;;;29.54;78.32;98153.28;4983762;28;20148;-69
2022/09/21 16:20:22;;;;;;;36.67;26.67;;;;;;;29.35;78.73;98157.53;4976408;28;20426;-67
2022/09/21 16:23:17;;;;;;;40.08;25.45;;;;;;;29.42;79.63;98166.00;4995612;28;20057;-68
2022/09/21 16:26:06;;;;;;;43.42;26.08;;;;;;;29.34;79.77;98175.28;5002165;28;20116;-69
2022/09/21 16:29:02;;;;;;;37.58;26.30;;;;;;;29.17;79.39;98170.84;5003694;28;20061;-68
2022/09/21 16:31:46;;;;;;;41.55;25.35;;;;;;;29.16;80.15;98168.41;5004015;28;20053;-69
2022/09/21 16:34:39;;;;;;;32.78;22.67;;;;;;;29.20;79.77;98170.16;5003019;28;20053;-67
2022/09/21 16:37:26;;;;;;;29.83;20.85;;;;;;;29.06;79.33;98173.28;4993894;28;20041;-68
2022/09/21 16:40:16;;;;;;;32.90;18.60;;;;;;;28.99;79.50;98175.81;5003353;28;20070;-67
2022/09/21 16:42:58;;;;;;;25.25;18.42;;;;;;;29.24;79.61;98181.31;4984418;28;20053;-67
2022/09/21 16:45:48;;;;;;;35.65;18.55;;;;;;;29.20;78.45;98183.16;4977998;28;20559;-68
2022/09/21 16:48:37;;;;;;;30.30;17.45;;;;;;;29.08;78.13;98184.78;4964493;28;20054;-66
2022/09/21 16:51:24;;;;;;;21.95;15.95;;;;;;;29.25;78.87;98199.47;4970998;28;20047;-67
2022/09/21 16:54:13;;;;;;;21.48;16.15;;;;;;;29.19;78.10;98190.63;4981216;28;20152;-67
2022/09/21 16:57:05;;;;;;;26.92;16.00;;;;;;;29.32;76.66;98187.84;4982120;28;20112;-67
2022/09/21 16:59:54;;;;;;;27.65;16.38;;;;;;;29.31;77.52;98180.69;4983286;28;20725;-68
2022/09/21 17:02:44;;;;;;;25.98;15.68;;;;;;;29.29;77.42;98181.03;4984594;28;20049;-68
2022/09/21 17:05:33;;;;;;;22.77;16.27;;;;;;;29.22;78.21;98195.47;4983378;28;20654;-71
2022/09/21 17:08:17;;;;;;;27.60;16.05;;;;;;;29.23;78.16;98196.28;5001854;28;20295;-68
2022/09/21 17:11:06;;;;;;;22.38;15.40;;;;;;;29.14;77.82;98193.66;5001971;28;20131;-68
2022/09/21 17:13:48;;;;;;;24.55;16.33;;;;;;;29.12;78.46;98195.13;5002246;28;20042;-68
2022/09/21 17:16:37;;;;;;;24.10;16.48;;;;;;;29.18;78.45;98188.25;5001897;28;20157;-68
2022/09/21 17:19:19;;;;;;;20.17;15.95;;;;;;;29.16;78.15;98185.81;5000916;28;20532;-68
2022/09/21 17:22:17;;;;;;;24.48;16.75;;;;;;;29.12;78.65;98189.59;5000138;28;20070;-69
2022/09/21 17:25:13;;;;;;;23.70;16.83;;;;;;;29.03;78.43;98189.75;4998335;28;20057;-69
2022/09/21 17:28:11;;;;;;;23.92;16.13;;;;;;;29.09;79.10;98196.63;5000347;28;20153;-69
2022/09/21 17:30:53;;;;;;;24.15;15.52;;;;;;;29.02;79.67;98188.91;4999797;28;20046;-68
2022/09/21 17:33:42;;;;;;;23.20;14.60;;;;;;;28.56;80.95;98182.78;5000918;28;20054;-68
2022/09/21 17:36:25;;;;;;;17.95;13.23;;;;;;;28.72;80.18;98182.06;4999486;28;20046;-68
2022/09/21 17:39:14;;;;;;;19.08;13.48;;;;;;;28.73;80.71;98189.22;4996306;28;20145;-70
2022/09/21 17:42:20;;;;;;;17.80;13.43;;;;;;;28.86;79.51;98182.53;4985064;28;20050;-66
2022/09/21 17:45:24;;;;;;;22.65;13.25;;;;;;;29.09;79.29;98185.59;4996277;28;20053;-67
2022/09/21 17:48:25;;;;;;;19.23;12.65;;;;;;;28.83;79.47;98184.03;5002919;28;20093;-67
2022/09/21 17:53:32;;;;;;;23.02;13.27;;;;;;;28.54;80.05;98176.81;5001298;28;20054;-69
2022/09/21 17:54:24;;;;;;;20.40;12.32;;;;;;;28.97;78.87;98178.13;5001561;28;20074;-67
2022/09/21 17:57:31;;;;;;;15.13;11.68;;;;;;;28.92;78.87;98175.59;5001817;28;20077;-66
2022/09/21 18:00:26;;;;;;;17.17;12.45;;;;;;;29.01;78.57;98176.28;4991434;28;20054;-67
2022/09/21 18:03:26;;;;;;;16.10;11.68;;;;;;;29.07;78.21;98172.09;4992987;28;20571;-68
2022/09/21 18:06:10;;;;;;;15.95;10.73;;;;;;;29.02;78.43;98166.81;5000210;28;20507;-68
2022/09/21 18:09:00;;;;;;;16.25;11.32;;;;;;;28.95;78.76;98165.81;4999961;28;20695;-68
2022/09/21 18:11:55;;;;;;;18.75;11.48;;;;;;;28.92;79.27;98159.03;5001154;28;20052;-68
2022/09/21 18:15:22;;;;;;;19.30;11.75;;;;;;;28.88;78.84;98158.13;5000609;28;20464;-68
2022/09/21 18:18:37;;;;;;;13.95;11.57;;;;;;;28.87;78.85;98151.81;4985529;28;20052;-69
2022/09/21 18:21:26;;;;;;;16.92;11.75;;;;;;;28.89;79.00;98149.50;4999874;28;20061;-67
2022/09/21 18:24:31;;;;;;;15.95;12.07;;;;;;;28.83;79.50;98150.06;4994529;28;20050;-69
2022/09/21 18:27:21;;;;;;;14.85;11.85;;;;;;;28.88;79.01;98147.09;5002150;28;20042;-69
2022/09/21 18:30:04;;;;;;;18.42;12.32;;;;;;;28.81;79.26;98147.66;5001713;28;20146;-68
2022/09/21 18:33:24;;;;;;;16.40;11.70;;;;;;;28.65;79.93;98146.78;4993596;28;20436;-69